Sunbeam, Illinois
Current Conditions -  °F | °C
As of 3:19 AM on Thursday 27 Nov 2014 (Local Time) from KMLI Reporting Station
Overcast Overcast  
Wind Chill: 14°   Ceiling: 1600
Heat Index: 25°   Visibility: 7mi
Dew Point: 20°   Wind: 12mph
Humidity: 81%   Direction: 300°WNW
Pressure: 30.33"   Gusts: NA
Location:  41.1928°N, 90.7165°W
Report Text: KMLI 270919Z AUTO 30010KT 7SM BKN016 OVC036 M04/M07 A3033 RMK AO2 T10391067 $
Loading
Personal Weather Stations






























Interactive Weather Map New forecast layout! Learn more

10-Day Weather Forecast

Advertisements
Track Severe Weather on mobile